createdAt,value
2023-01-25T00:02:13.193Z,98851.97
2023-01-25T00:04:39.673Z,98850.41
2023-01-25T00:07:08.396Z,98853.91
2023-01-25T00:09:35.011Z,98842.69
2023-01-25T00:12:04.037Z,98850.53
2023-01-25T00:14:30.544Z,98844.28
2023-01-25T00:16:57.024Z,98839.28
2023-01-25T00:19:24.008Z,98838.47
2023-01-25T00:21:50.458Z,98831.66
2023-01-25T00:24:17.021Z,98829.91
2023-01-25T00:26:46.404Z,98825.69
2023-01-25T00:29:14.407Z,98829.84
2023-01-25T00:31:58.830Z,98832.38
2023-01-25T00:34:25.374Z,98835.75
2023-01-25T00:36:55.281Z,98832.28
2023-01-25T00:39:21.748Z,98846.00
2023-01-25T00:41:48.294Z,98836.69
2023-01-25T00:44:14.953Z,98841.84
2023-01-25T00:46:43.690Z,98841.84
2023-01-25T00:49:27.622Z,98836.69
2023-01-25T00:51:55.401Z,98844.53
2023-01-25T00:54:22.933Z,98839.41
2023-01-25T00:56:49.918Z,98834.13
2023-01-25T00:59:16.353Z,98837.53
2023-01-25T01:01:45.839Z,98843.69
2023-01-25T01:04:12.324Z,98833.53
2023-01-25T01:06:42.291Z,98834.41
2023-01-25T01:09:14.079Z,98832.47
2023-01-25T01:11:40.665Z,98830.84
2023-01-25T01:14:07.369Z,98824.88
2023-01-25T01:16:34.930Z,98832.75
2023-01-25T01:19:01.435Z,98829.34
2023-01-25T01:21:28.222Z,98827.59
2023-01-25T01:23:57.785Z,98830.94
2023-01-25T01:26:24.488Z,98833.56
2023-01-25T01:28:50.906Z,98825.69
2023-01-25T01:31:20.856Z,98832.69
2023-01-25T01:33:52.128Z,98830.09
2023-01-25T01:36:20.945Z,98834.25
2023-01-25T01:38:47.451Z,98832.50
2023-01-25T01:41:15.645Z,98827.63
2023-01-25T01:43:43.003Z,98820.81
2023-01-25T01:46:34.414Z,98822.47
2023-01-25T01:49:14.282Z,98816.47
2023-01-25T01:51:47.383Z,98809.56
2023-01-25T01:54:16.868Z,98813.06
2023-01-25T01:57:00.263Z,98813.16
2023-01-25T01:59:34.701Z,98811.50
2023-01-25T02:02:01.242Z,98812.25
2023-01-25T02:04:28.480Z,98806.19
2023-01-25T02:07:02.600Z,98808.75
2023-01-25T02:09:31.569Z,98799.25
2023-01-25T02:11:59.798Z,98801.03
2023-01-25T02:14:31.488Z,98800.94
2023-01-25T02:16:58.481Z,98806.97
2023-01-25T02:19:44.171Z,98806.97
2023-01-25T02:22:16.503Z,98815.53
2023-01-25T02:24:50.820Z,98815.53
2023-01-25T02:27:17.970Z,98817.31
2023-01-25T02:29:47.385Z,98819.19
2023-01-25T02:32:14.295Z,98817.50
2023-01-25T02:34:40.777Z,98826.03
2023-01-25T02:37:12.514Z,98810.41
2023-01-25T02:39:38.961Z,98812.34
2023-01-25T02:42:05.516Z,98808.00
2023-01-25T02:44:35.021Z,98817.38
2023-01-25T02:47:01.487Z,98811.31
2023-01-25T02:49:28.002Z,98808.72
2023-01-25T02:51:58.397Z,98807.91
2023-01-25T02:54:26.749Z,98813.88
2023-01-25T02:56:53.490Z,98808.00
2023-01-25T02:59:20.004Z,98807.09
2023-01-25T03:01:47.056Z,98808.94
2023-01-25T03:04:13.645Z,98808.75
2023-01-25T03:06:42.641Z,98812.28
2023-01-25T03:09:10.592Z,98808.72
2023-01-25T03:11:37.354Z,98808.72
2023-01-25T03:14:03.882Z,98812.34
2023-01-25T03:16:34.228Z,98811.41
2023-01-25T03:19:02.978Z,98810.69
2023-01-25T03:21:29.513Z,98800.28
2023-01-25T03:23:59.156Z,98793.31
2023-01-25T03:26:26.786Z,98787.28
2023-01-25T03:28:55.804Z,98795.06
2023-01-25T03:31:22.627Z,98797.63
2023-01-25T03:33:49.814Z,98791.66
2023-01-25T03:36:16.462Z,98795.06
2023-01-25T03:38:43.160Z,98799.47
2023-01-25T03:41:09.605Z,98792.81
2023-01-25T03:43:36.020Z,98785.84
2023-01-25T03:46:02.548Z,98785.03
2023-01-25T03:48:29.468Z,98787.59
2023-01-25T03:50:59.216Z,98786.00
2023-01-25T03:53:30.773Z,98785.97
2023-01-25T03:56:01.806Z,98777.38
2023-01-25T03:58:30.876Z,98778.13
2023-01-25T04:00:59.945Z,98782.44
2023-01-25T04:03:27.239Z,98772.88
2023-01-25T04:05:56.089Z,98772.97
2023-01-25T04:08:23.167Z,98769.56
2023-01-25T04:10:57.683Z,98769.56
2023-01-25T04:13:25.225Z,98777.22
2023-01-25T04:15:51.809Z,98772.94
2023-01-25T04:18:19.093Z,98768.75
2023-01-25T04:20:46.052Z,98759.28
2023-01-25T04:23:12.870Z,98769.44
2023-01-25T04:25:39.619Z,98769.56
2023-01-25T04:28:06.133Z,98766.13
2023-01-25T04:30:33.754Z,98766.25
2023-01-25T04:33:04.799Z,98757.59
2023-01-25T04:35:33.624Z,98754.16
2023-01-25T04:38:00.509Z,98748.16
2023-01-25T04:40:27.748Z,98753.16
2023-01-25T04:42:54.454Z,98753.97
2023-01-25T04:45:23.704Z,98748.94
2023-01-25T04:47:50.585Z,98753.38
2023-01-25T04:50:17.112Z,98748.13
2023-01-25T04:52:43.550Z,98748.03
2023-01-25T04:55:14.773Z,98742.03
2023-01-25T04:57:41.311Z,98742.25
2023-01-25T05:00:08.810Z,98750.56
2023-01-25T05:02:35.397Z,98748.69
2023-01-25T05:05:02.554Z,98748.97
2023-01-25T05:07:29.091Z,98740.53
2023-01-25T05:09:55.573Z,98731.94
2023-01-25T05:12:24.300Z,98739.41
2023-01-25T05:14:50.750Z,98736.97
2023-01-25T05:17:17.256Z,98734.44
2023-01-25T05:19:43.723Z,98731.19
2023-01-25T05:22:15.221Z,98735.47
2023-01-25T05:24:41.939Z,98735.63
2023-01-25T05:27:09.712Z,98733.22
2023-01-25T05:29:38.009Z,98724.41
2023-01-25T05:32:07.453Z,98721.84
2023-01-25T05:34:35.032Z,98717.69
2023-01-25T05:37:02.770Z,98720.91
2023-01-25T05:39:29.515Z,98716.69
2023-01-25T05:41:56.079Z,98713.00
2023-01-25T05:44:23.106Z,98718.16
2023-01-25T05:46:50.302Z,98708.75
2023-01-25T05:49:18.064Z,98706.28
2023-01-25T05:51:45.510Z,98709.03
2023-01-25T05:54:14.897Z,98711.53
2023-01-25T05:56:41.516Z,98709.72
2023-01-25T05:59:07.960Z,98704.53
2023-01-25T06:01:34.377Z,98715.56
2023-01-25T06:04:01.412Z,98711.41
2023-01-25T06:06:28.264Z,98714.00
2023-01-25T06:08:54.695Z,98714.91
2023-01-25T06:11:23.966Z,98711.41
2023-01-25T06:13:51.335Z,98705.34
2023-01-25T06:16:18.873Z,98709.56
2023-01-25T06:18:45.514Z,98707.09
2023-01-25T06:21:12.264Z,98704.59
2023-01-25T06:23:38.743Z,98702.19
2023-01-25T06:26:08.003Z,98699.53
2023-01-25T06:28:38.811Z,98685.75
2023-01-25T06:31:18.602Z,98693.59
2023-01-25T06:33:49.553Z,98698.66
2023-01-25T06:36:18.619Z,98706.31
2023-01-25T06:38:50.737Z,98695.94
2023-01-25T06:41:18.374Z,98707.88
2023-01-25T06:43:45.538Z,98707.03
2023-01-25T06:46:12.663Z,98706.28
2023-01-25T06:48:40.173Z,98704.47
2023-01-25T06:51:08.964Z,98702.13
2023-01-25T06:53:38.473Z,98703.78
2023-01-25T06:56:10.684Z,98704.75
2023-01-25T06:58:37.807Z,98694.34
2023-01-25T07:01:07.610Z,98698.56
2023-01-25T07:03:36.949Z,98699.38
2023-01-25T07:06:06.288Z,98700.28
2023-01-25T07:08:33.838Z,98695.06
2023-01-25T07:11:03.312Z,98684.94
2023-01-25T07:13:31.061Z,98691.84
2023-01-25T07:16:00.149Z,98687.44
2023-01-25T07:18:28.005Z,98680.72
2023-01-25T07:20:54.471Z,98686.81
2023-01-25T07:23:21.006Z,98683.31
2023-01-25T07:25:49.333Z,98686.88
2023-01-25T07:28:16.944Z,98689.16
2023-01-25T07:30:46.267Z,98681.34
2023-01-25T07:33:12.787Z,98681.53
2023-01-25T07:35:39.336Z,98681.44
2023-01-25T07:38:05.984Z,98687.41
2023-01-25T07:40:32.476Z,98678.13
2023-01-25T07:42:59.021Z,98680.72
2023-01-25T07:45:30.195Z,98670.41
2023-01-25T07:47:58.870Z,98667.03
2023-01-25T07:50:27.001Z,98671.06
2023-01-25T07:52:54.246Z,98667.03
2023-01-25T07:55:21.849Z,98670.03
2023-01-25T07:57:48.459Z,98675.25
2023-01-25T08:00:15.183Z,98670.34
2023-01-25T08:02:41.740Z,98664.06
2023-01-25T08:05:08.965Z,98666.13
2023-01-25T08:07:35.647Z,98661.97
2023-01-25T08:10:02.149Z,98663.56
2023-01-25T08:12:28.800Z,98663.63
2023-01-25T08:14:55.362Z,98665.88
2023-01-25T08:17:22.084Z,98678.66
2023-01-25T08:19:48.608Z,98670.22
2023-01-25T08:22:15.094Z,98670.34
2023-01-25T08:24:41.569Z,98664.38
2023-01-25T08:27:08.003Z,98665.91
2023-01-25T08:29:34.700Z,98665.06
2023-01-25T08:32:04.352Z,98670.78
2023-01-25T08:34:32.355Z,98657.16
2023-01-25T08:36:58.926Z,98658.75
2023-01-25T08:39:25.827Z,98672.50
2023-01-25T08:41:52.467Z,98663.66
2023-01-25T08:44:24.021Z,98669.69
2023-01-25T08:46:50.572Z,98668.91
2023-01-25T08:49:17.085Z,98665.59
2023-01-25T08:51:43.610Z,98660.94
2023-01-25T08:54:12.499Z,98660.03
2023-01-25T08:56:42.508Z,98656.53
2023-01-25T08:59:13.254Z,98668.66
2023-01-25T09:01:39.783Z,98660.13
2023-01-25T09:04:06.220Z,98665.38
2023-01-25T09:06:33.146Z,98667.66
2023-01-25T09:09:02.250Z,98667.81
2023-01-25T09:11:28.904Z,98662.72
2023-01-25T09:13:55.416Z,98662.59
2023-01-25T09:16:30.988Z,98653.91
2023-01-25T09:19:00.390Z,98659.19
2023-01-25T09:21:30.239Z,98657.47
2023-01-25T09:24:05.865Z,98659.00
2023-01-25T09:26:36.370Z,98661.53
2023-01-25T09:29:07.681Z,98652.09
2023-01-25T09:31:34.453Z,98660.59
2023-01-25T09:34:01.173Z,98663.19
2023-01-25T09:36:27.694Z,98660.09
2023-01-25T09:38:55.382Z,98653.91
2023-01-25T09:41:43.454Z,98651.34
2023-01-25T09:44:47.905Z,98649.59
2023-01-25T09:47:20.557Z,98650.53
2023-01-25T09:50:05.300Z,98640.31
2023-01-25T09:52:50.806Z,98642.94
2023-01-25T09:55:24.335Z,98634.34
2023-01-25T09:57:54.025Z,98633.41
2023-01-25T10:00:31.874Z,98629.81
2023-01-25T10:03:23.333Z,98626.16
2023-01-25T10:05:53.522Z,98614.31
2023-01-25T10:08:25.930Z,98618.56
2023-01-25T10:11:00.204Z,98614.38
2023-01-25T10:13:31.750Z,98620.28
2023-01-25T10:16:25.631Z,98618.41
2023-01-25T10:19:26.907Z,98614.94
2023-01-25T10:22:29.903Z,98605.59
2023-01-25T10:25:44.317Z,98609.28
2023-01-25T10:28:39.642Z,98598.97
2023-01-25T10:31:14.773Z,98596.50
2023-01-25T10:33:46.284Z,98597.44
2023-01-25T10:36:27.224Z,98597.00
2023-01-25T10:38:59.196Z,98595.47
2023-01-25T10:41:41.343Z,98597.81
2023-01-25T10:44:24.592Z,98598.59
2023-01-25T10:47:05.150Z,98597.06
2023-01-25T10:49:46.258Z,98594.41
2023-01-25T10:52:22.222Z,98588.44
2023-01-25T10:55:04.571Z,98585.88
2023-01-25T10:57:31.236Z,98573.00
2023-01-25T11:00:00.660Z,98574.09
2023-01-25T11:02:41.646Z,98572.25
2023-01-25T11:05:30.774Z,98564.59
2023-01-25T11:07:58.706Z,98553.94
2023-01-25T11:10:37.322Z,98549.09
2023-01-25T11:13:16.109Z,98543.91
2023-01-25T11:15:48.583Z,98540.63
2023-01-25T11:18:15.063Z,98535.63
2023-01-25T11:20:41.529Z,98524.28
2023-01-25T11:23:24.010Z,98519.66
2023-01-25T11:25:51.392Z,98524.78
2023-01-25T11:28:20.102Z,98514.72
2023-01-25T11:30:47.582Z,98506.13
2023-01-25T11:33:16.670Z,98501.28
2023-01-25T11:36:02.960Z,98495.91
2023-01-25T11:38:29.707Z,98495.13
2023-01-25T11:41:08.845Z,98489.91
2023-01-25T11:43:56.955Z,98488.25
2023-01-25T11:46:51.259Z,98481.38
2023-01-25T11:49:44.325Z,98466.66
2023-01-25T11:52:31.818Z,98458.16
2023-01-25T11:55:24.409Z,98450.31
2023-01-25T11:58:18.919Z,98445.06
2023-01-25T12:01:17.603Z,98439.94
2023-01-25T12:04:18.310Z,98433.97
2023-01-25T12:07:03.919Z,98424.69
2023-01-25T12:09:53.685Z,98420.06
2023-01-25T12:12:42.872Z,98414.91
2023-01-25T12:15:15.559Z,98414.41
2023-01-25T12:18:19.695Z,98409.06
2023-01-25T12:21:08.274Z,98406.53
2023-01-25T12:23:47.398Z,98414.47
2023-01-25T12:26:29.790Z,98407.31
2023-01-25T12:29:26.276Z,98401.59
2023-01-25T12:32:02.920Z,98388.78
2023-01-25T12:34:44.113Z,98381.03
2023-01-25T12:37:28.405Z,98383.56
2023-01-25T12:40:00.518Z,98375.03
2023-01-25T12:42:37.638Z,98376.78
2023-01-25T12:45:17.925Z,98359.50
2023-01-25T12:47:49.271Z,98366.34
2023-01-25T12:50:35.011Z,98365.03
2023-01-25T12:53:13.590Z,98358.66
2023-01-25T12:55:40.733Z,98349.97
2023-01-25T12:58:14.111Z,98353.34
2023-01-25T13:00:53.673Z,98344.66
2023-01-25T13:03:55.764Z,98352.41
2023-01-25T13:06:34.453Z,98344.69
2023-01-25T13:09:25.251Z,98343.63
2023-01-25T13:11:52.022Z,98348.13
2023-01-25T13:14:18.730Z,98341.44
2023-01-25T13:17:08.472Z,98338.81
2023-01-25T13:19:36.436Z,98338.06
2023-01-25T13:22:03.773Z,98339.13
2023-01-25T13:24:32.461Z,98340.59
2023-01-25T13:27:03.899Z,98338.72
2023-01-25T13:29:39.647Z,98336.16
2023-01-25T13:32:13.478Z,98341.28
2023-01-25T13:34:44.115Z,98337.72
2023-01-25T13:37:23.002Z,98332.31
2023-01-25T13:39:49.455Z,98326.13
2023-01-25T13:42:24.254Z,98336.66
2023-01-25T13:44:53.971Z,98323.94
2023-01-25T13:47:24.082Z,98320.28
2023-01-25T13:50:13.003Z,98326.94
2023-01-25T13:52:39.768Z,98324.47
2023-01-25T13:55:18.194Z,98322.44
2023-01-25T13:57:44.718Z,98318.53
2023-01-25T14:00:16.785Z,98306.41
2023-01-25T14:02:47.204Z,98316.47
2023-01-25T14:05:21.354Z,98314.41
2023-01-25T14:07:50.963Z,98309.19
2023-01-25T14:10:24.243Z,98315.78
2023-01-25T14:12:53.891Z,98312.28
2023-01-25T14:15:34.417Z,98305.09
2023-01-25T14:18:10.523Z,98299.13
2023-01-25T14:20:37.176Z,98300.09
2023-01-25T14:23:05.715Z,98292.34
2023-01-25T14:25:33.517Z,98291.63
2023-01-25T14:28:02.421Z,98286.22
2023-01-25T14:30:34.901Z,98278.66
2023-01-25T14:33:03.977Z,98282.09
2023-01-25T14:35:42.307Z,98272.72
2023-01-25T14:38:35.431Z,98273.41
2023-01-25T14:41:14.432Z,98272.81
2023-01-25T14:43:53.588Z,98263.28
2023-01-25T14:46:21.468Z,98258.00
2023-01-25T14:48:48.075Z,98265.88
2023-01-25T14:51:26.062Z,98257.34
2023-01-25T14:54:01.444Z,98250.59
2023-01-25T14:56:30.568Z,98254.50
2023-01-25T14:59:00.572Z,98250.41
2023-01-25T15:01:39.813Z,98246.03
2023-01-25T15:04:12.483Z,98253.75
2023-01-25T15:06:50.816Z,98256.28
2023-01-25T15:09:30.950Z,98246.97
2023-01-25T15:12:27.953Z,98244.50
2023-01-25T15:14:57.481Z,98246.41
2023-01-25T15:17:56.681Z,98235.31
2023-01-25T15:20:28.119Z,98235.31
2023-01-25T15:22:57.650Z,98238.69
2023-01-25T15:25:24.624Z,98237.88
2023-01-25T15:27:51.633Z,98231.91
2023-01-25T15:30:18.885Z,98228.06
2023-01-25T15:32:46.021Z,98237.44
2023-01-25T15:35:21.682Z,98236.38
2023-01-25T15:37:49.538Z,98237.53
2023-01-25T15:40:17.110Z,98231.44
2023-01-25T15:42:45.947Z,98228.81
2023-01-25T15:45:12.461Z,98223.19
2023-01-25T15:47:39.571Z,98223.75
2023-01-25T15:50:07.071Z,98212.91
2023-01-25T15:52:33.599Z,98219.44
2023-01-25T15:55:02.194Z,98216.47
2023-01-25T15:57:32.963Z,98225.94
2023-01-25T16:00:06.617Z,98226.38
2023-01-25T16:02:33.183Z,98224.19
2023-01-25T16:05:02.142Z,98225.63
2023-01-25T16:07:31.980Z,98230.94
2023-01-25T16:09:58.482Z,98227.44
2023-01-25T16:12:25.621Z,98219.59
2023-01-25T16:14:52.080Z,98219.44
2023-01-25T16:17:20.374Z,98218.72
2023-01-25T16:19:47.865Z,98222.25
2023-01-25T16:22:15.537Z,98210.47
2023-01-25T16:24:43.512Z,98210.56
2023-01-25T16:27:25.580Z,98207.22
2023-01-25T16:29:53.033Z,98208.88
2023-01-25T16:32:19.650Z,98209.81
2023-01-25T16:34:46.249Z,98199.47
2023-01-25T16:37:17.134Z,98193.78
2023-01-25T16:39:43.622Z,98187.84
2023-01-25T16:42:10.896Z,98190.53
2023-01-25T16:44:38.046Z,98185.59
2023-01-25T16:47:05.310Z,98186.00
2023-01-25T16:49:33.420Z,98188.75
2023-01-25T16:52:02.613Z,98190.31
2023-01-25T16:54:29.104Z,98183.44
2023-01-25T16:56:55.611Z,98186.66
2023-01-25T16:59:23.147Z,98187.59
2023-01-25T17:01:49.925Z,98183.22
2023-01-25T17:04:16.983Z,98176.63
2023-01-25T17:06:47.082Z,98170.78
2023-01-25T17:09:24.607Z,98174.06
2023-01-25T17:11:52.414Z,98170.66
2023-01-25T17:14:19.530Z,98168.00
2023-01-25T17:16:48.235Z,98167.19
2023-01-25T17:19:16.227Z,98160.63
2023-01-25T17:21:43.197Z,98155.88
2023-01-25T17:24:13.387Z,98159.31
2023-01-25T17:26:40.761Z,98160.09
2023-01-25T17:29:10.096Z,98153.31
2023-01-25T17:31:37.378Z,98149.97
2023-01-25T17:34:07.123Z,98151.97
2023-01-25T17:36:34.245Z,98147.09
2023-01-25T17:39:08.206Z,98148.41
2023-01-25T17:41:34.874Z,98141.38
2023-01-25T17:44:01.482Z,98132.03
2023-01-25T17:46:32.904Z,98134.59
2023-01-25T17:49:01.087Z,98124.81
2023-01-25T17:51:28.228Z,98124.25
2023-01-25T17:53:54.990Z,98123.25
2023-01-25T17:56:21.525Z,98121.59
2023-01-25T17:58:48.077Z,98118.38
2023-01-25T18:01:23.908Z,98116.78
2023-01-25T18:03:52.307Z,98114.03
2023-01-25T18:06:21.729Z,98114.03
2023-01-25T18:08:50.403Z,98108.84
2023-01-25T18:11:23.161Z,98117.69
2023-01-25T18:13:52.001Z,98111.78
2023-01-25T18:16:23.507Z,98101.44
2023-01-25T18:18:52.463Z,98101.28
2023-01-25T18:21:25.539Z,98102.78
2023-01-25T18:23:57.600Z,98093.28
2023-01-25T18:26:27.070Z,98094.41
2023-01-25T18:28:59.578Z,98090.88
2023-01-25T18:31:26.534Z,98081.56
2023-01-25T18:33:53.165Z,98091.00
2023-01-25T18:36:20.431Z,98079.63
2023-01-25T18:38:46.906Z,98093.34
2023-01-25T18:41:13.443Z,98080.31
2023-01-25T18:43:39.974Z,98080.47
2023-01-25T18:46:06.659Z,98079.91
2023-01-25T18:48:33.501Z,98074.81
2023-01-25T18:51:11.235Z,98068.84
2023-01-25T18:53:41.471Z,98061.94
2023-01-25T18:56:16.682Z,98062.59
2023-01-25T18:58:43.974Z,98057.59
2023-01-25T19:01:19.856Z,98059.38
2023-01-25T19:03:47.806Z,98047.53
2023-01-25T19:06:15.023Z,98043.88
2023-01-25T19:08:44.136Z,98036.97
2023-01-25T19:11:13.935Z,98043.22
2023-01-25T19:13:41.648Z,98042.69
2023-01-25T19:16:13.921Z,98044.72
2023-01-25T19:18:52.061Z,98044.66
2023-01-25T19:21:21.556Z,98041.34
2023-01-25T19:23:48.485Z,98036.94
2023-01-25T19:26:17.718Z,98032.66
2023-01-25T19:28:45.290Z,98034.44
2023-01-25T19:31:13.792Z,98036.94
2023-01-25T19:33:40.869Z,98023.97
2023-01-25T19:36:12.939Z,98019.78
2023-01-25T19:38:41.925Z,98016.56
2023-01-25T19:41:13.727Z,98016.44
2023-01-25T19:43:43.778Z,98023.97
2023-01-25T19:46:16.219Z,98016.28
2023-01-25T19:48:43.994Z,98014.91
2023-01-25T19:51:14.764Z,98016.66
2023-01-25T19:53:46.397Z,98013.16
2023-01-25T19:56:17.711Z,98007.06
2023-01-25T19:58:45.918Z,97997.53
2023-01-25T20:01:19.205Z,97994.16
2023-01-25T20:03:46.042Z,97993.91
2023-01-25T20:06:14.178Z,97988.91
2023-01-25T20:08:42.929Z,97981.78
2023-01-25T20:11:21.595Z,97986.72
2023-01-25T20:13:50.436Z,97980.25
2023-01-25T20:16:17.724Z,97969.47
2023-01-25T20:18:48.452Z,97969.88
2023-01-25T20:21:17.746Z,97977.03
2023-01-25T20:23:46.247Z,97970.63
2023-01-25T20:26:18.570Z,97969.25
2023-01-25T20:28:47.738Z,97964.00
2023-01-25T20:31:24.781Z,97963.34
2023-01-25T20:33:55.486Z,97963.44
2023-01-25T20:36:22.639Z,97958.34
2023-01-25T20:38:49.128Z,97949.75
2023-01-25T20:41:17.362Z,97952.19
2023-01-25T20:44:02.049Z,97950.34
2023-01-25T20:46:33.955Z,97949.38
2023-01-25T20:49:02.167Z,97947.09
2023-01-25T20:51:29.513Z,97950.69
2023-01-25T20:53:56.856Z,97949.13
2023-01-25T20:56:23.947Z,97943.72
2023-01-25T20:58:51.371Z,97934.03
2023-01-25T21:01:22.418Z,97936.75
2023-01-25T21:03:49.827Z,97937.38
2023-01-25T21:06:17.373Z,97930.94
2023-01-25T21:08:46.320Z,97926.69
2023-01-25T21:11:15.804Z,97925.88
2023-01-25T21:13:42.389Z,97924.19
2023-01-25T21:16:21.569Z,97916.66
2023-01-25T21:18:57.464Z,97916.41
2023-01-25T21:21:29.219Z,97910.50
2023-01-25T21:24:02.670Z,97913.44
2023-01-25T21:26:32.115Z,97911.09
2023-01-25T21:29:00.217Z,97907.34
2023-01-25T21:31:29.069Z,97914.25
2023-01-25T21:33:57.934Z,97912.03
2023-01-25T21:36:27.232Z,97919.69
2023-01-25T21:38:55.118Z,97913.72
2023-01-25T21:41:25.731Z,97914.41
2023-01-25T21:44:12.913Z,97913.41
2023-01-25T21:46:40.089Z,97908.38
2023-01-25T21:49:27.323Z,97912.69
2023-01-25T21:51:59.196Z,97901.56
2023-01-25T21:54:27.219Z,97904.81
2023-01-25T21:56:56.543Z,97900.66
2023-01-25T21:59:23.882Z,97902.22
2023-01-25T22:01:51.575Z,97886.06
2023-01-25T22:04:19.798Z,97879.09
2023-01-25T22:06:49.085Z,97883.56
2023-01-25T22:09:15.720Z,97880.94
2023-01-25T22:11:42.435Z,97878.75
2023-01-25T22:14:09.023Z,97880.47
2023-01-25T22:16:35.491Z,97881.06
2023-01-25T22:19:01.976Z,97874.41
2023-01-25T22:21:32.069Z,97866.00
2023-01-25T22:24:04.322Z,97868.72
2023-01-25T22:26:42.888Z,97860.94
2023-01-25T22:29:09.439Z,97853.09
2023-01-25T22:31:36.066Z,97851.56
2023-01-25T22:34:02.757Z,97849.72
2023-01-25T22:36:33.041Z,97848.13
2023-01-25T22:39:02.223Z,97846.75
2023-01-25T22:41:31.282Z,97843.06
2023-01-25T22:44:01.149Z,97843.00
2023-01-25T22:46:29.225Z,97831.13
2023-01-25T22:48:57.337Z,97840.44
2023-01-25T22:51:29.371Z,97832.94
2023-01-25T22:53:57.655Z,97834.88
2023-01-25T22:56:27.404Z,97825.66
2023-01-25T22:58:54.533Z,97825.66
2023-01-25T23:01:23.872Z,97823.09
2023-01-25T23:03:51.322Z,97824.00
2023-01-25T23:06:28.742Z,97823.34
2023-01-25T23:09:03.230Z,97817.94
2023-01-25T23:11:35.287Z,97818.53
2023-01-25T23:14:23.143Z,97819.38
2023-01-25T23:16:49.746Z,97812.31
2023-01-25T23:19:16.360Z,97802.94
2023-01-25T23:21:42.872Z,97808.28
2023-01-25T23:24:10.437Z,97803.03
2023-01-25T23:26:38.069Z,97809.22
2023-01-25T23:29:10.898Z,97804.78
2023-01-25T23:31:37.967Z,97792.50
2023-01-25T23:34:11.169Z,97800.03
2023-01-25T23:36:38.828Z,97790.72
2023-01-25T23:39:07.588Z,97793.44
2023-01-25T23:41:34.210Z,97786.56
2023-01-25T23:44:02.000Z,97783.50
2023-01-25T23:46:30.190Z,97777.59
2023-01-25T23:48:56.803Z,97771.75
2023-01-25T23:51:23.319Z,97772.34
2023-01-25T23:53:49.796Z,97776.97
2023-01-25T23:56:18.515Z,97764.03
2023-01-25T23:58:47.997Z,97763.47
